createdAt,value
2023-04-10T00:01:46.251Z,101326.94
2023-04-10T00:04:12.722Z,101406.41
2023-04-10T00:06:40.615Z,101441.88
2023-04-10T00:09:07.827Z,101435.09
2023-04-10T00:11:34.409Z,101408.28
2023-04-10T00:14:00.758Z,101433.47
2023-04-10T00:16:27.251Z,101444.03
2023-04-10T00:18:53.580Z,101423.16
2023-04-10T00:21:19.932Z,101372.97
2023-04-10T00:23:46.279Z,101429.28
2023-04-10T00:26:12.619Z,101404.28
2023-04-10T00:28:38.981Z,101428.50
2023-04-10T00:31:05.614Z,101381.78
2023-04-10T00:33:32.040Z,101390.66
2023-04-10T00:35:58.533Z,101358.72
2023-04-10T00:38:24.922Z,101421.16
2023-04-10T00:40:51.248Z,101433.34
2023-04-10T00:43:20.201Z,101318.13
2023-04-10T00:45:47.858Z,101386.53
2023-04-10T00:48:15.696Z,101411.78
2023-04-10T00:50:42.053Z,101399.56
2023-04-10T00:53:08.439Z,101426.41
2023-04-10T00:55:34.847Z,101329.34
2023-04-10T00:58:01.371Z,101355.28
2023-04-10T01:00:27.818Z,101395.81
2023-04-10T01:02:55.809Z,101365.59
2023-04-10T01:05:23.048Z,101334.88
2023-04-10T01:08:02.473Z,101296.84
2023-04-10T01:10:46.032Z,101414.03
2023-04-10T01:13:22.911Z,101284.75
2023-04-10T01:16:03.973Z,101365.25
2023-04-10T01:18:48.622Z,101340.81
2023-04-10T01:21:15.596Z,101388.38
2023-04-10T01:24:06.359Z,101383.22
2023-04-10T01:26:57.777Z,101381.38
2023-04-10T01:29:29.507Z,101349.03
2023-04-10T01:32:17.503Z,101317.13
2023-04-10T01:34:46.669Z,101345.78
2023-04-10T01:37:17.015Z,101362.69
2023-04-10T01:39:47.160Z,101350.22
2023-04-10T01:42:15.525Z,101371.88
2023-04-10T01:44:46.242Z,101213.75
2023-04-10T01:47:16.176Z,101369.56
2023-04-10T01:49:44.796Z,101343.94
2023-04-10T01:52:11.808Z,101366.09
2023-04-10T01:54:38.732Z,101341.91
2023-04-10T01:57:06.359Z,101320.31
2023-04-10T01:59:32.734Z,101312.66
2023-04-10T02:02:00.798Z,101371.41
2023-04-10T02:04:27.999Z,101373.47
2023-04-10T02:07:04.665Z,101378.69
2023-04-10T02:09:49.110Z,101369.88
2023-04-10T02:12:30.904Z,101342.44
2023-04-10T02:15:01.796Z,101300.53
2023-04-10T02:17:31.079Z,101258.38
2023-04-10T02:19:59.158Z,101340.34
2023-04-10T02:22:26.451Z,101358.66
2023-04-10T02:24:54.120Z,101268.94
2023-04-10T02:27:31.096Z,101353.66
2023-04-10T02:29:57.457Z,101310.41
2023-04-10T02:32:24.211Z,101347.50
2023-04-10T02:34:50.675Z,101321.81
2023-04-10T02:37:17.234Z,101318.41
2023-04-10T02:39:43.654Z,101297.97
2023-04-10T02:42:10.271Z,101242.16
2023-04-10T02:44:36.644Z,101328.59
2023-04-10T02:47:03.107Z,101314.63
2023-04-10T02:49:29.950Z,101315.06
2023-04-10T02:51:56.616Z,101333.03
2023-04-10T02:54:23.105Z,101323.75
2023-04-10T02:56:49.491Z,101293.28
2023-04-10T02:59:15.914Z,101327.34
2023-04-10T03:01:42.436Z,101292.22
2023-04-10T03:04:09.047Z,101276.75
2023-04-10T03:06:35.382Z,101302.63
2023-04-10T03:09:01.719Z,101190.00
2023-04-10T03:11:28.095Z,101283.34
2023-04-10T03:13:54.933Z,101298.91
2023-04-10T03:16:21.668Z,101307.59
2023-04-10T03:18:48.094Z,101195.19
2023-04-10T03:21:14.628Z,101289.59
2023-04-10T03:23:41.214Z,101229.00
2023-04-10T03:26:07.618Z,101177.94
2023-04-10T03:28:35.517Z,101291.50
2023-04-10T03:31:02.874Z,101294.06
2023-04-10T03:33:29.875Z,101252.53
2023-04-10T03:35:57.189Z,101231.66
2023-04-10T03:38:23.781Z,101224.69
2023-04-10T03:40:50.218Z,101231.63
2023-04-10T03:43:16.643Z,101237.81
2023-04-10T03:45:42.984Z,101254.34
2023-04-10T03:48:09.336Z,101255.13
2023-04-10T03:50:35.723Z,101296.00
2023-04-10T03:53:02.121Z,101250.97
2023-04-10T03:55:28.649Z,101246.59
2023-04-10T03:57:55.000Z,101249.13
2023-04-10T04:00:21.388Z,101237.00
2023-04-10T04:02:51.836Z,101266.50
2023-04-10T04:05:18.496Z,101160.06
2023-04-10T04:07:44.834Z,101154.81
2023-04-10T04:10:11.229Z,101159.16
2023-04-10T04:12:37.537Z,101146.09
2023-04-10T04:15:04.286Z,101221.53
2023-04-10T04:17:30.746Z,101219.78
2023-04-10T04:19:57.139Z,101149.50
2023-04-10T04:22:23.496Z,101174.72
2023-04-10T04:24:49.841Z,101259.47
2023-04-10T04:27:16.654Z,101248.31
2023-04-10T04:29:43.003Z,101181.69
2023-04-10T04:32:09.377Z,101224.06
2023-04-10T04:34:35.802Z,101171.22
2023-04-10T04:37:02.938Z,101231.06
2023-04-10T04:39:29.339Z,101241.31
2023-04-10T04:41:55.693Z,101237.28
2023-04-10T04:44:22.140Z,101206.31
2023-04-10T04:46:48.455Z,101151.00
2023-04-10T04:49:14.805Z,101246.06
2023-04-10T04:51:41.228Z,101190.56
2023-04-10T04:54:07.676Z,101214.84
2023-04-10T04:56:34.010Z,101166.44
2023-04-10T04:59:00.386Z,101239.94
2023-04-10T05:01:26.854Z,101213.13
2023-04-10T05:03:53.347Z,101220.03
2023-04-10T05:06:20.548Z,101140.31
2023-04-10T05:08:46.978Z,101179.34
2023-04-10T05:11:13.312Z,101136.22
2023-04-10T05:13:39.659Z,101211.44
2023-04-10T05:16:06.820Z,101225.25
2023-04-10T05:18:35.357Z,101195.91
2023-04-10T05:21:01.713Z,101161.25
2023-04-10T05:23:28.035Z,101242.59
2023-04-10T05:25:54.435Z,101116.25
2023-04-10T05:28:20.925Z,101143.78
2023-04-10T05:30:47.309Z,101221.72
2023-04-10T05:33:13.693Z,101202.63
2023-04-10T05:35:40.214Z,101144.19
2023-04-10T05:38:06.563Z,101249.56
2023-04-10T05:40:32.916Z,101110.03
2023-04-10T05:42:59.291Z,101192.88
2023-04-10T05:45:25.737Z,101228.50
2023-04-10T05:47:52.170Z,101219.56
2023-04-10T05:50:18.610Z,101205.94
2023-04-10T05:52:46.550Z,101131.44
2023-04-10T05:55:13.012Z,101222.38
2023-04-10T05:57:39.674Z,101241.56
2023-04-10T06:00:06.631Z,101237.84
2023-04-10T06:02:33.129Z,101079.25
2023-04-10T06:04:59.791Z,101154.75
2023-04-10T06:07:27.037Z,101211.13
2023-04-10T06:09:53.366Z,101217.78
2023-04-10T06:12:19.681Z,101098.41
2023-04-10T06:14:47.490Z,101189.25
2023-04-10T06:17:13.835Z,101213.25
2023-04-10T06:19:40.375Z,101082.41
2023-04-10T06:22:06.733Z,101146.41
2023-04-10T06:24:33.123Z,101222.53
2023-04-10T06:27:00.736Z,101195.72
2023-04-10T06:29:27.164Z,101226.25
2023-04-10T06:31:53.660Z,101123.94
2023-04-10T06:34:20.384Z,101187.09
2023-04-10T06:36:46.935Z,101222.44
2023-04-10T06:39:13.344Z,101207.69
2023-04-10T06:41:39.672Z,101188.16
2023-04-10T06:44:06.009Z,101139.56
2023-04-10T06:46:32.405Z,101210.28
2023-04-10T06:48:58.755Z,101152.25
2023-04-10T06:51:25.123Z,101182.34
2023-04-10T06:53:51.458Z,101174.88
2023-04-10T06:56:17.820Z,101185.94
2023-04-10T06:58:44.159Z,101151.28
2023-04-10T07:01:10.923Z,101185.59
2023-04-10T07:03:38.162Z,101205.69
2023-04-10T07:06:04.731Z,101173.44
2023-04-10T07:08:31.211Z,101187.53
2023-04-10T07:10:58.727Z,101168.56
2023-04-10T07:13:25.436Z,101078.44
2023-04-10T07:15:51.859Z,101066.81
2023-04-10T07:18:18.221Z,101203.31
2023-04-10T07:20:44.566Z,101061.38
2023-04-10T07:23:11.079Z,101194.97
2023-04-10T07:25:37.437Z,101075.56
2023-04-10T07:28:03.948Z,101170.78
2023-04-10T07:30:30.301Z,101165.38
2023-04-10T07:32:57.480Z,101160.03
2023-04-10T07:35:24.402Z,101137.63
2023-04-10T07:37:52.495Z,101092.09
2023-04-10T07:40:18.994Z,101076.34
2023-04-10T07:42:46.029Z,101078.13
2023-04-10T07:45:12.418Z,101157.31
2023-04-10T07:47:38.795Z,101107.09
2023-04-10T07:50:06.186Z,101129.34
2023-04-10T07:52:32.534Z,101117.97
2023-04-10T07:55:04.533Z,101048.03
2023-04-10T07:57:32.316Z,101077.16
2023-04-10T07:59:58.872Z,101106.25
2023-04-10T08:02:25.534Z,101066.38
2023-04-10T08:04:52.258Z,101121.94
2023-04-10T08:07:22.255Z,101023.81
2023-04-10T08:09:48.862Z,101078.28
2023-04-10T08:12:15.348Z,101108.06
2023-04-10T08:14:41.847Z,101106.63
2023-04-10T08:17:14.331Z,101073.28
2023-04-10T08:19:42.006Z,101061.56
2023-04-10T08:22:08.573Z,101107.47
2023-04-10T08:24:35.028Z,101025.06
2023-04-10T08:27:01.602Z,101075.13
2023-04-10T08:29:27.963Z,101036.88
2023-04-10T08:31:55.537Z,101096.53
2023-04-10T08:34:24.327Z,101008.16
2023-04-10T08:36:50.673Z,101072.94
2023-04-10T08:39:17.042Z,101048.97
2023-04-10T08:41:43.353Z,101044.22
2023-04-10T08:44:09.796Z,101084.81
2023-04-10T08:46:37.143Z,101077.84
2023-04-10T08:49:05.350Z,101063.63
2023-04-10T08:51:42.886Z,101085.13
2023-04-10T08:54:32.640Z,101087.09
2023-04-10T08:57:01.374Z,101028.88
2023-04-10T08:59:29.750Z,101089.28
2023-04-10T09:01:57.388Z,101090.91
2023-04-10T09:04:27.262Z,101074.56
2023-04-10T09:06:53.723Z,101037.69
2023-04-10T09:09:20.310Z,101081.66
2023-04-10T09:11:52.578Z,101099.53
2023-04-10T09:14:23.407Z,101061.81
2023-04-10T09:16:51.424Z,101069.09
2023-04-10T09:19:30.590Z,101039.28
2023-04-10T09:21:56.969Z,101033.13
2023-04-10T09:24:24.090Z,101072.22
2023-04-10T09:26:50.663Z,101035.19
2023-04-10T09:29:17.074Z,101036.72
2023-04-10T09:31:46.457Z,101068.94
2023-04-10T09:34:24.211Z,101062.34
2023-04-10T09:36:58.852Z,101013.28
2023-04-10T09:39:34.900Z,101009.34
2023-04-10T09:42:01.429Z,101046.38
2023-04-10T09:44:31.246Z,101028.19
2023-04-10T09:46:58.932Z,101002.16
2023-04-10T09:49:25.866Z,100935.22
2023-04-10T09:51:54.553Z,100931.09
2023-04-10T09:54:35.945Z,101005.13
2023-04-10T09:57:04.023Z,100934.28
2023-04-10T09:59:31.355Z,100959.50
2023-04-10T10:01:58.158Z,100935.75
2023-04-10T10:04:25.639Z,100998.88
2023-04-10T10:06:52.177Z,101013.31
2023-04-10T10:09:18.735Z,100975.44
2023-04-10T10:11:45.320Z,100944.81
2023-04-10T10:14:17.145Z,100981.19
2023-04-10T10:16:49.766Z,100955.00
2023-04-10T10:19:21.479Z,100964.63
2023-04-10T10:21:48.600Z,100976.69
2023-04-10T10:24:17.040Z,100941.97
2023-04-10T10:26:45.306Z,100948.22
2023-04-10T10:29:14.848Z,100888.09
2023-04-10T10:31:42.404Z,100872.25
2023-04-10T10:34:09.567Z,100941.22
2023-04-10T10:36:36.796Z,100913.75
2023-04-10T10:39:15.672Z,100924.91
2023-04-10T10:41:54.488Z,100927.94
2023-04-10T10:44:31.951Z,100895.69
2023-04-10T10:47:10.139Z,100914.13
2023-04-10T10:50:00.683Z,100930.72
2023-04-10T10:52:44.248Z,100930.69
2023-04-10T10:55:25.695Z,100926.31
2023-04-10T10:57:53.795Z,100905.16
2023-04-10T11:00:21.981Z,100920.06
2023-04-10T11:03:13.003Z,100908.38
2023-04-10T11:06:08.858Z,100897.97
2023-04-10T11:08:55.448Z,100895.69
2023-04-10T11:11:28.175Z,100872.00
2023-04-10T11:13:57.550Z,100874.47
2023-04-10T11:16:31.437Z,100884.19
2023-04-10T11:19:13.239Z,100885.16
2023-04-10T11:22:02.162Z,100879.16
2023-04-10T11:24:29.443Z,100831.19
2023-04-10T11:26:56.446Z,100774.53
2023-04-10T11:29:28.758Z,100873.16
2023-04-10T11:31:57.394Z,100874.41
2023-04-10T11:34:24.260Z,100742.81
2023-04-10T11:36:51.048Z,100807.44
2023-04-10T11:39:18.951Z,100832.75
2023-04-10T11:41:47.434Z,100817.25
2023-04-10T11:44:17.563Z,100748.91
2023-04-10T11:46:50.782Z,100727.44
2023-04-10T11:49:22.345Z,100742.91
2023-04-10T11:51:50.280Z,100783.47
2023-04-10T11:54:18.387Z,100769.38
2023-04-10T11:56:57.068Z,100783.38
2023-04-10T11:59:23.966Z,100794.50
2023-04-10T12:01:54.042Z,100732.19
2023-04-10T12:04:22.360Z,100811.00
2023-04-10T12:06:51.401Z,100643.84
2023-04-10T12:09:22.167Z,100780.28
2023-04-10T12:11:49.825Z,100805.81
2023-04-10T12:14:16.199Z,100725.66
2023-04-10T12:16:42.847Z,100780.50
2023-04-10T12:19:09.238Z,100735.84
2023-04-10T12:21:36.799Z,100793.59
2023-04-10T12:24:03.172Z,100655.22
2023-04-10T12:26:30.228Z,100728.78
2023-04-10T12:28:58.141Z,100767.38
2023-04-10T12:31:32.458Z,100789.31
2023-04-10T12:33:59.925Z,100775.47
2023-04-10T12:36:32.041Z,100770.72
2023-04-10T12:39:00.193Z,100763.03
2023-04-10T12:41:29.832Z,100771.34
2023-04-10T12:44:11.974Z,100774.13
2023-04-10T12:46:39.410Z,100750.41
2023-04-10T12:49:15.930Z,100751.53
2023-04-10T12:51:44.220Z,100755.31
2023-04-10T12:54:10.811Z,100726.00
2023-04-10T12:56:41.981Z,100766.91
2023-04-10T12:59:08.391Z,100664.28
2023-04-10T13:01:34.835Z,100708.66
2023-04-10T13:04:01.573Z,100675.09
2023-04-10T13:06:28.145Z,100740.13
2023-04-10T13:08:56.081Z,100687.94
2023-04-10T13:11:23.090Z,100677.50
2023-04-10T13:13:49.740Z,100637.97
2023-04-10T13:16:16.817Z,100676.91
2023-04-10T13:18:43.217Z,100685.47
2023-04-10T13:21:09.663Z,100690.03
2023-04-10T13:23:36.144Z,100697.97
2023-04-10T13:26:02.871Z,100649.50
2023-04-10T13:28:29.322Z,100603.09
2023-04-10T13:30:56.367Z,100635.28
2023-04-10T13:33:24.821Z,100666.09
2023-04-10T13:35:51.226Z,100634.34
2023-04-10T13:38:19.928Z,100638.78
2023-04-10T13:40:47.598Z,100666.25
2023-04-10T13:43:14.037Z,100590.66
2023-04-10T13:45:41.286Z,100581.56
2023-04-10T13:48:07.887Z,100644.97
2023-04-10T13:50:34.520Z,100639.66
2023-04-10T13:53:00.949Z,100619.69
2023-04-10T13:55:27.388Z,100620.38
2023-04-10T13:57:53.737Z,100613.25
2023-04-10T14:00:20.441Z,100606.81
2023-04-10T14:02:47.053Z,100558.56
2023-04-10T14:05:13.524Z,100609.47
2023-04-10T14:07:39.878Z,100592.56
2023-04-10T14:10:07.356Z,100568.72
2023-04-10T14:12:35.302Z,100504.84
2023-04-10T14:15:02.506Z,100564.28
2023-04-10T14:17:28.974Z,100589.59
2023-04-10T14:19:55.526Z,100562.28
2023-04-10T14:22:22.181Z,100573.94
2023-04-10T14:24:49.001Z,100477.13
2023-04-10T14:27:18.768Z,100563.34
2023-04-10T14:29:54.405Z,100551.25
2023-04-10T14:32:21.573Z,100516.22
2023-04-10T14:34:47.898Z,100428.63
2023-04-10T14:37:15.505Z,100454.16
2023-04-10T14:39:42.128Z,100457.75
2023-04-10T14:42:08.964Z,100537.25
2023-04-10T14:44:35.388Z,100553.81
2023-04-10T14:47:02.005Z,100519.66
2023-04-10T14:49:28.410Z,100507.16
2023-04-10T14:51:54.770Z,100515.94
2023-04-10T14:54:22.045Z,100430.94
2023-04-10T14:56:49.229Z,100512.03
2023-04-10T14:59:18.994Z,100529.31
2023-04-10T15:01:45.513Z,100384.94
2023-04-10T15:04:12.164Z,100444.63
2023-04-10T15:06:38.672Z,100517.16
2023-04-10T15:09:07.988Z,100453.09
2023-04-10T15:11:34.504Z,100434.41
2023-04-10T15:14:02.162Z,100513.56
2023-04-10T15:16:30.336Z,100420.53
2023-04-10T15:18:56.788Z,100415.28
2023-04-10T15:21:23.568Z,100440.22
2023-04-10T15:23:50.505Z,100438.22
2023-04-10T15:26:17.150Z,100383.38
2023-04-10T15:28:43.621Z,100447.66
2023-04-10T15:31:10.933Z,100525.59
2023-04-10T15:33:39.100Z,100491.78
2023-04-10T15:36:07.308Z,100463.88
2023-04-10T15:38:35.386Z,100489.66
2023-04-10T15:41:07.951Z,100499.09
2023-04-10T15:43:34.540Z,100387.09
2023-04-10T15:46:01.894Z,100400.78
2023-04-10T15:48:29.290Z,100401.22
2023-04-10T15:50:55.631Z,100370.41
2023-04-10T15:53:22.113Z,100452.19
2023-04-10T15:55:48.556Z,100358.44
2023-04-10T15:58:14.940Z,100301.16
2023-04-10T16:00:41.295Z,100343.75
2023-04-10T16:03:07.910Z,100324.06
2023-04-10T16:05:34.395Z,100392.97
2023-04-10T16:08:02.948Z,100297.44
2023-04-10T16:10:29.351Z,100321.91
2023-04-10T16:13:03.921Z,100295.69
2023-04-10T16:15:33.300Z,100404.41
2023-04-10T16:17:59.748Z,100430.38
2023-04-10T16:20:26.343Z,100377.75
2023-04-10T16:22:53.467Z,100366.84
2023-04-10T16:25:21.660Z,100388.84
2023-04-10T16:27:48.935Z,100364.41
2023-04-10T16:30:15.483Z,100284.09
2023-04-10T16:32:41.973Z,100379.97
2023-04-10T16:35:08.584Z,100390.66
2023-04-10T16:37:35.040Z,100327.47
2023-04-10T16:40:01.978Z,100232.88
2023-04-10T16:42:28.851Z,100258.03
2023-04-10T16:44:55.244Z,100261.22
2023-04-10T16:47:21.679Z,100236.13
2023-04-10T16:49:48.075Z,100313.53
2023-04-10T16:52:15.563Z,100390.56
2023-04-10T16:54:42.118Z,100379.50
2023-04-10T16:57:08.456Z,100346.06
2023-04-10T16:59:34.853Z,100194.34
2023-04-10T17:02:01.306Z,100343.19
2023-04-10T17:04:28.713Z,100268.03
2023-04-10T17:06:55.212Z,100243.69
2023-04-10T17:09:21.554Z,100275.19
2023-04-10T17:11:47.992Z,100295.13
2023-04-10T17:14:15.536Z,100241.19
2023-04-10T17:16:41.955Z,100322.59
2023-04-10T17:19:08.377Z,100309.75
2023-04-10T17:21:34.719Z,100314.84
2023-04-10T17:24:01.085Z,100270.50
2023-04-10T17:26:27.686Z,100310.78
2023-04-10T17:28:54.260Z,100300.84
2023-04-10T17:31:20.928Z,100318.50
2023-04-10T17:33:47.362Z,100293.06
2023-04-10T17:36:14.254Z,100381.97
2023-04-10T17:38:41.937Z,100350.53
2023-04-10T17:41:09.728Z,100227.97
2023-04-10T17:43:36.258Z,100221.91
2023-04-10T17:46:02.636Z,100215.00
2023-04-10T17:48:29.532Z,100313.47
2023-04-10T17:50:56.244Z,100314.81
2023-04-10T17:53:22.644Z,100298.06
2023-04-10T17:55:49.301Z,100347.25
2023-04-10T17:58:15.766Z,100214.34
2023-04-10T18:00:45.546Z,100182.66
2023-04-10T18:03:12.094Z,100354.22
2023-04-10T18:05:39.745Z,100268.22
2023-04-10T18:08:07.749Z,100385.19
2023-04-10T18:10:34.898Z,100317.53
2023-04-10T18:13:01.242Z,100359.72
2023-04-10T18:15:28.167Z,100400.19
2023-04-10T18:17:55.122Z,100296.41
2023-04-10T18:20:22.371Z,100382.88
2023-04-10T18:22:48.794Z,100254.28
2023-04-10T18:25:16.003Z,100411.50
2023-04-10T18:27:48.048Z,100403.06
2023-04-10T18:30:21.975Z,100394.97
2023-04-10T18:32:51.878Z,100317.63
2023-04-10T18:35:18.907Z,100429.66
2023-04-10T18:37:45.259Z,100243.31
2023-04-10T18:40:16.499Z,100273.50
2023-04-10T18:42:43.219Z,100460.41
2023-04-10T18:45:10.100Z,100438.38
2023-04-10T18:47:36.538Z,100297.94
2023-04-10T18:50:02.984Z,100344.97
2023-04-10T18:52:29.513Z,100242.84
2023-04-10T18:54:55.966Z,100446.72
2023-04-10T18:57:22.372Z,100384.84
2023-04-10T18:59:48.701Z,100323.25
2023-04-10T19:02:15.445Z,100419.16
2023-04-10T19:04:42.084Z,100432.34
2023-04-10T19:07:08.552Z,100418.44
2023-04-10T19:09:34.962Z,100453.78
2023-04-10T19:12:02.211Z,100400.63
2023-04-10T19:14:28.588Z,100381.19
2023-04-10T19:16:54.988Z,100316.19
2023-04-10T19:19:21.328Z,100394.50
2023-04-10T19:21:47.822Z,100300.78
2023-04-10T19:24:14.211Z,100296.22
2023-04-10T19:26:40.658Z,100316.19
2023-04-10T19:29:08.800Z,100277.09
2023-04-10T19:31:35.241Z,100327.09
2023-04-10T19:34:04.462Z,100289.53
2023-04-10T19:36:31.145Z,100367.69
2023-04-10T19:38:57.860Z,100421.13
2023-04-10T19:41:24.510Z,100410.88
2023-04-10T19:43:52.612Z,100402.09
2023-04-10T19:46:20.644Z,100396.50
2023-04-10T19:48:48.630Z,100408.44
2023-04-10T19:51:15.459Z,100388.25
2023-04-10T19:53:42.282Z,100399.19
2023-04-10T19:56:08.858Z,100385.00
2023-04-10T19:58:39.880Z,100299.09
2023-04-10T20:01:08.555Z,100357.72
2023-04-10T20:03:36.364Z,100377.09
2023-04-10T20:06:04.185Z,100252.09
2023-04-10T20:08:30.760Z,100392.56
2023-04-10T20:10:58.297Z,100395.25
2023-04-10T20:13:24.854Z,100421.13
2023-04-10T20:15:51.590Z,100394.91
2023-04-10T20:18:18.082Z,100290.34
2023-04-10T20:20:44.798Z,100333.06
2023-04-10T20:23:11.874Z,100468.53
2023-04-10T20:25:38.655Z,100306.41
2023-04-10T20:28:05.047Z,100416.53
2023-04-10T20:30:31.496Z,100378.03
2023-04-10T20:32:57.922Z,100188.03
2023-04-10T20:35:26.647Z,100379.41
2023-04-10T20:37:53.103Z,100340.28
2023-04-10T20:40:19.845Z,100204.63
2023-04-10T20:42:46.270Z,100173.84
2023-04-10T20:45:14.932Z,100239.63
2023-04-10T20:47:41.512Z,100346.50
2023-04-10T20:50:09.414Z,100358.91
2023-04-10T20:52:37.251Z,100209.22
2023-04-10T20:55:03.882Z,100157.38
2023-04-10T20:57:30.599Z,100277.47
2023-04-10T20:59:56.955Z,100144.31
2023-04-10T21:02:23.465Z,100261.97
2023-04-10T21:04:52.081Z,100203.13
2023-04-10T21:07:18.824Z,100311.78
2023-04-10T21:09:45.662Z,100162.78
2023-04-10T21:12:12.124Z,100089.94
2023-04-10T21:14:38.651Z,100219.09
2023-04-10T21:17:05.084Z,100219.19
2023-04-10T21:19:31.461Z,100186.13
2023-04-10T21:21:58.566Z,100283.81
2023-04-10T21:24:25.054Z,100129.31
2023-04-10T21:26:51.490Z,100144.81
2023-04-10T21:29:17.852Z,100285.84
2023-04-10T21:31:44.447Z,100137.59
2023-04-10T21:34:10.951Z,100078.56
2023-04-10T21:36:38.580Z,100196.41
2023-04-10T21:39:09.066Z,100281.88
2023-04-10T21:41:37.140Z,100216.13
2023-04-10T21:44:06.275Z,100100.84
2023-04-10T21:46:33.473Z,100049.22
2023-04-10T21:49:00.072Z,100246.50
2023-04-10T21:51:27.569Z,100123.53
2023-04-10T21:53:53.908Z,100317.25
2023-04-10T21:56:20.726Z,100162.34
2023-04-10T21:58:47.097Z,100169.94
2023-04-10T22:01:13.519Z,100236.22
2023-04-10T22:03:40.526Z,100135.94
2023-04-10T22:06:07.429Z,100305.84
2023-04-10T22:08:33.902Z,100294.88
2023-04-10T22:11:00.450Z,100085.94
2023-04-10T22:13:30.750Z,100078.41
2023-04-10T22:15:58.239Z,100296.22
2023-04-10T22:18:24.656Z,100064.97
2023-04-10T22:20:51.145Z,100189.09
2023-04-10T22:23:17.541Z,100242.19
2023-04-10T22:25:43.925Z,100145.41
2023-04-10T22:28:10.550Z,100202.31
2023-04-10T22:30:36.946Z,100048.69
2023-04-10T22:33:03.472Z,100053.50
2023-04-10T22:35:29.967Z,100166.94
2023-04-10T22:37:56.939Z,100130.63
2023-04-10T22:40:23.647Z,100036.25
2023-04-10T22:42:50.558Z,100041.94
2023-04-10T22:45:16.980Z,100182.09
2023-04-10T22:47:43.371Z,100155.00
2023-04-10T22:50:09.978Z,100149.78
2023-04-10T22:52:36.531Z,100281.59
2023-04-10T22:55:06.679Z,100159.75
2023-04-10T22:57:35.365Z,100176.31
2023-04-10T23:00:01.907Z,100059.84
2023-04-10T23:02:28.546Z,100053.66
2023-04-10T23:04:57.641Z,100144.28
2023-04-10T23:07:25.158Z,100102.41
2023-04-10T23:09:51.584Z,100094.13
2023-04-10T23:12:18.051Z,100281.56
2023-04-10T23:14:44.452Z,100074.69
2023-04-10T23:17:10.877Z,100177.06
2023-04-10T23:19:37.226Z,100196.50
2023-04-10T23:22:03.657Z,100126.25
2023-04-10T23:24:30.160Z,100194.88
2023-04-10T23:26:58.648Z,100021.34
2023-04-10T23:29:25.259Z,100101.66
2023-04-10T23:31:51.626Z,100239.69
2023-04-10T23:34:18.746Z,100021.53
2023-04-10T23:36:45.303Z,100207.38
2023-04-10T23:39:12.489Z,100279.88
2023-04-10T23:41:38.905Z,100045.88
2023-04-10T23:44:05.340Z,100124.84
2023-04-10T23:46:31.808Z,100248.03
2023-04-10T23:48:58.249Z,100031.88
2023-04-10T23:51:24.704Z,100168.81
2023-04-10T23:53:51.100Z,100266.19
2023-04-10T23:56:17.552Z,100263.34
2023-04-10T23:58:43.923Z,100128.72
